sensor_id;sensor_type;location;lat;lon;timestamp;P1;durP1;ratioP1;P2;durP2;ratioP2
3321;SDS011;1673;51.388;7.086;2023-08-30T00:01:00;15.80;;;9.13;;
3321;SDS011;1673;51.388;7.086;2023-08-30T00:03:30;15.20;;;9.88;;
3321;SDS011;1673;51.388;7.086;2023-08-30T00:06:02;17.10;;;9.00;;
3321;SDS011;1673;51.388;7.086;2023-08-30T00:08:33;16.70;;;9.80;;
3321;SDS011;1673;51.388;7.086;2023-08-30T00:11:05;17.23;;;9.27;;
3321;SDS011;1673;51.388;7.086;2023-08-30T00:13:35;17.10;;;9.55;;
3321;SDS011;1673;51.388;7.086;2023-08-30T00:16:05;14.20;;;9.18;;
3321;SDS011;1673;51.388;7.086;2023-08-30T00:18:35;19.00;;;10.02;;
3321;SDS011;1673;51.388;7.086;2023-08-30T00:21:04;21.75;;;10.40;;
3321;SDS011;1673;51.388;7.086;2023-08-30T00:23:34;16.00;;;9.63;;
3321;SDS011;1673;51.388;7.086;2023-08-30T00:26:06;16.13;;;9.27;;
3321;SDS011;1673;51.388;7.086;2023-08-30T00:28:36;18.75;;;9.00;;
3321;SDS011;1673;51.388;7.086;2023-08-30T00:31:06;14.75;;;8.57;;
3321;SDS011;1673;51.388;7.086;2023-08-30T00:33:36;15.37;;;9.03;;
3321;SDS011;1673;51.388;7.086;2023-08-30T00:36:06;19.33;;;8.60;;
3321;SDS011;1673;51.388;7.086;2023-08-30T00:38:36;16.23;;;9.63;;
3321;SDS011;1673;51.388;7.086;2023-08-30T00:41:08;16.65;;;9.50;;
3321;SDS011;1673;51.388;7.086;2023-08-30T00:43:38;13.00;;;8.70;;
3321;SDS011;1673;51.388;7.086;2023-08-30T00:46:08;15.40;;;9.65;;
3321;SDS011;1673;51.388;7.086;2023-08-30T00:48:38;16.10;;;9.38;;
3321;SDS011;1673;51.388;7.086;2023-08-30T00:51:08;22.77;;;10.07;;
3321;SDS011;1673;51.388;7.086;2023-08-30T00:53:38;17.60;;;10.32;;
3321;SDS011;1673;51.388;7.086;2023-08-30T00:56:11;18.45;;;10.13;;
3321;SDS011;1673;51.388;7.086;2023-08-30T00:58:41;19.00;;;11.05;;
3321;SDS011;1673;51.388;7.086;2023-08-30T01:01:11;24.83;;;14.05;;
3321;SDS011;1673;51.388;7.086;2023-08-30T01:03:41;24.95;;;13.80;;
3321;SDS011;1673;51.388;7.086;2023-08-30T01:06:10;18.13;;;12.15;;
3321;SDS011;1673;51.388;7.086;2023-08-30T01:08:40;16.40;;;10.50;;
3321;SDS011;1673;51.388;7.086;2023-08-30T01:11:15;16.35;;;10.80;;
3321;SDS011;1673;51.388;7.086;2023-08-30T01:13:53;18.30;;;10.85;;
3321;SDS011;1673;51.388;7.086;2023-08-30T01:16:28;15.93;;;10.15;;
3321;SDS011;1673;51.388;7.086;2023-08-30T01:18:58;17.13;;;9.70;;
3321;SDS011;1673;51.388;7.086;2023-08-30T01:21:30;15.07;;;9.07;;
3321;SDS011;1673;51.388;7.086;2023-08-30T01:24:23;14.00;;;8.90;;
3321;SDS011;1673;51.388;7.086;2023-08-30T01:29:48;15.07;;;9.63;;
3321;SDS011;1673;51.388;7.086;2023-08-30T01:32:18;14.10;;;8.93;;
3321;SDS011;1673;51.388;7.086;2023-08-30T01:34:51;19.05;;;9.40;;
3321;SDS011;1673;51.388;7.086;2023-08-30T01:37:21;15.57;;;9.52;;
3321;SDS011;1673;51.388;7.086;2023-08-30T01:39:52;15.50;;;9.60;;
3321;SDS011;1673;51.388;7.086;2023-08-30T01:42:26;18.00;;;10.67;;
3321;SDS011;1673;51.388;7.086;2023-08-30T01:44:56;20.10;;;9.90;;
3321;SDS011;1673;51.388;7.086;2023-08-30T01:47:29;22.77;;;11.60;;
3321;SDS011;1673;51.388;7.086;2023-08-30T01:50:00;18.38;;;11.50;;
3321;SDS011;1673;51.388;7.086;2023-08-30T01:52:30;17.20;;;10.65;;
3321;SDS011;1673;51.388;7.086;2023-08-30T01:55:02;16.77;;;10.43;;
3321;SDS011;1673;51.388;7.086;2023-08-30T01:57:34;19.13;;;11.13;;
3321;SDS011;1673;51.388;7.086;2023-08-30T02:00:05;20.13;;;11.20;;
3321;SDS011;1673;51.388;7.086;2023-08-30T02:02:42;22.20;;;11.27;;
3321;SDS011;1673;51.388;7.086;2023-08-30T02:05:12;18.80;;;11.30;;
3321;SDS011;1673;51.388;7.086;2023-08-30T02:07:43;22.23;;;12.20;;
3321;SDS011;1673;51.388;7.086;2023-08-30T02:10:31;18.83;;;11.77;;
3321;SDS011;1673;51.388;7.086;2023-08-30T02:13:06;20.35;;;13.52;;
3321;SDS011;1673;51.388;7.086;2023-08-30T02:15:36;20.77;;;11.90;;
3321;SDS011;1673;51.388;7.086;2023-08-30T02:18:07;22.98;;;13.30;;
3321;SDS011;1673;51.388;7.086;2023-08-30T02:20:37;19.63;;;11.55;;
3321;SDS011;1673;51.388;7.086;2023-08-30T02:23:09;21.83;;;12.43;;
3321;SDS011;1673;51.388;7.086;2023-08-30T02:25:40;21.70;;;13.80;;
3321;SDS011;1673;51.388;7.086;2023-08-30T02:28:13;18.60;;;12.25;;
3321;SDS011;1673;51.388;7.086;2023-08-30T02:30:43;20.95;;;12.25;;
3321;SDS011;1673;51.388;7.086;2023-08-30T02:33:12;24.60;;;13.77;;
3321;SDS011;1673;51.388;7.086;2023-08-30T02:35:43;23.25;;;13.10;;
3321;SDS011;1673;51.388;7.086;2023-08-30T02:38:13;21.48;;;13.98;;
3321;SDS011;1673;51.388;7.086;2023-08-30T02:40:44;25.58;;;16.42;;
3321;SDS011;1673;51.388;7.086;2023-08-30T02:43:18;27.23;;;15.73;;
3321;SDS011;1673;51.388;7.086;2023-08-30T02:45:51;25.15;;;14.25;;
3321;SDS011;1673;51.388;7.086;2023-08-30T02:48:21;31.13;;;17.35;;
3321;SDS011;1673;51.388;7.086;2023-08-30T02:50:51;28.88;;;18.40;;
3321;SDS011;1673;51.388;7.086;2023-08-30T02:53:21;29.92;;;16.58;;
3321;SDS011;1673;51.388;7.086;2023-08-30T02:55:51;24.10;;;15.20;;
3321;SDS011;1673;51.388;7.086;2023-08-30T02:58:24;25.80;;;15.10;;
3321;SDS011;1673;51.388;7.086;2023-08-30T03:00:59;25.57;;;15.60;;
3321;SDS011;1673;51.388;7.086;2023-08-30T03:03:29;24.08;;;15.20;;
3321;SDS011;1673;51.388;7.086;2023-08-30T03:06:01;38.03;;;15.35;;
3321;SDS011;1673;51.388;7.086;2023-08-30T03:08:30;25.52;;;14.77;;
3321;SDS011;1673;51.388;7.086;2023-08-30T03:11:07;23.90;;;14.63;;
3321;SDS011;1673;51.388;7.086;2023-08-30T03:13:46;28.67;;;15.03;;
3321;SDS011;1673;51.388;7.086;2023-08-30T03:16:17;23.95;;;15.60;;
3321;SDS011;1673;51.388;7.086;2023-08-30T03:18:47;26.50;;;15.32;;
3321;SDS011;1673;51.388;7.086;2023-08-30T03:21:17;25.80;;;15.93;;
3321;SDS011;1673;51.388;7.086;2023-08-30T03:23:47;24.15;;;14.60;;
3321;SDS011;1673;51.388;7.086;2023-08-30T03:26:16;23.00;;;14.90;;
3321;SDS011;1673;51.388;7.086;2023-08-30T03:28:49;23.42;;;14.60;;
3321;SDS011;1673;51.388;7.086;2023-08-30T03:31:19;28.10;;;15.30;;
3321;SDS011;1673;51.388;7.086;2023-08-30T03:33:50;25.90;;;15.55;;
3321;SDS011;1673;51.388;7.086;2023-08-30T03:36:21;23.87;;;14.60;;
3321;SDS011;1673;51.388;7.086;2023-08-30T03:38:52;26.58;;;14.35;;
3321;SDS011;1673;51.388;7.086;2023-08-30T03:41:22;22.75;;;14.70;;
3321;SDS011;1673;51.388;7.086;2023-08-30T03:43:54;26.17;;;15.38;;
3321;SDS011;1673;51.388;7.086;2023-08-30T03:46:24;25.80;;;15.82;;
3321;SDS011;1673;51.388;7.086;2023-08-30T03:48:54;27.55;;;16.75;;
3321;SDS011;1673;51.388;7.086;2023-08-30T03:51:24;25.08;;;15.60;;
3321;SDS011;1673;51.388;7.086;2023-08-30T03:53:54;28.13;;;16.63;;
3321;SDS011;1673;51.388;7.086;2023-08-30T03:56:24;24.60;;;14.95;;
3321;SDS011;1673;51.388;7.086;2023-08-30T03:58:56;27.55;;;16.55;;
3321;SDS011;1673;51.388;7.086;2023-08-30T04:01:26;27.47;;;17.03;;
3321;SDS011;1673;51.388;7.086;2023-08-30T04:03:56;27.15;;;16.90;;
3321;SDS011;1673;51.388;7.086;2023-08-30T04:06:26;27.67;;;16.10;;
3321;SDS011;1673;51.388;7.086;2023-08-30T04:08:56;28.38;;;16.40;;
3321;SDS011;1673;51.388;7.086;2023-08-30T04:11:26;31.20;;;16.92;;
3321;SDS011;1673;51.388;7.086;2023-08-30T04:13:58;30.03;;;16.57;;
3321;SDS011;1673;51.388;7.086;2023-08-30T04:16:29;27.73;;;17.67;;
3321;SDS011;1673;51.388;7.086;2023-08-30T04:18:59;31.83;;;17.70;;
3321;SDS011;1673;51.388;7.086;2023-08-30T04:21:28;26.48;;;16.52;;
3321;SDS011;1673;51.388;7.086;2023-08-30T04:23:58;33.45;;;17.90;;
3321;SDS011;1673;51.388;7.086;2023-08-30T04:26:29;33.50;;;18.45;;
3321;SDS011;1673;51.388;7.086;2023-08-30T04:29:02;35.38;;;20.08;;
3321;SDS011;1673;51.388;7.086;2023-08-30T04:31:32;36.67;;;19.40;;
3321;SDS011;1673;51.388;7.086;2023-08-30T04:34:02;33.97;;;19.00;;
3321;SDS011;1673;51.388;7.086;2023-08-30T04:36:32;30.95;;;17.70;;
3321;SDS011;1673;51.388;7.086;2023-08-30T04:39:02;35.20;;;20.25;;
3321;SDS011;1673;51.388;7.086;2023-08-30T04:41:33;34.55;;;20.25;;
3321;SDS011;1673;51.388;7.086;2023-08-30T04:44:06;37.17;;;21.65;;
3321;SDS011;1673;51.388;7.086;2023-08-30T04:46:35;39.40;;;19.88;;
3321;SDS011;1673;51.388;7.086;2023-08-30T04:49:05;39.15;;;22.13;;
3321;SDS011;1673;51.388;7.086;2023-08-30T04:51:35;39.93;;;22.47;;
3321;SDS011;1673;51.388;7.086;2023-08-30T04:54:05;33.90;;;20.25;;
3321;SDS011;1673;51.388;7.086;2023-08-30T04:56:35;39.80;;;21.37;;
3321;SDS011;1673;51.388;7.086;2023-08-30T04:59:08;34.67;;;20.10;;
3321;SDS011;1673;51.388;7.086;2023-08-30T05:01:41;36.13;;;20.60;;
3321;SDS011;1673;51.388;7.086;2023-08-30T05:04:12;37.08;;;20.90;;
3321;SDS011;1673;51.388;7.086;2023-08-30T05:06:42;36.70;;;22.23;;
3321;SDS011;1673;51.388;7.086;2023-08-30T05:09:12;40.75;;;22.70;;
3321;SDS011;1673;51.388;7.086;2023-08-30T05:11:42;42.63;;;24.55;;
3321;SDS011;1673;51.388;7.086;2023-08-30T05:14:14;43.15;;;23.83;;
3321;SDS011;1673;51.388;7.086;2023-08-30T05:16:44;41.78;;;23.38;;
3321;SDS011;1673;51.388;7.086;2023-08-30T05:19:18;43.88;;;24.23;;
3321;SDS011;1673;51.388;7.086;2023-08-30T05:21:49;45.87;;;23.80;;
3321;SDS011;1673;51.388;7.086;2023-08-30T05:24:21;37.72;;;22.98;;
3321;SDS011;1673;51.388;7.086;2023-08-30T05:26:53;43.88;;;22.77;;
3321;SDS011;1673;51.388;7.086;2023-08-30T05:29:27;42.70;;;21.98;;
3321;SDS011;1673;51.388;7.086;2023-08-30T05:31:57;45.03;;;21.83;;
3321;SDS011;1673;51.388;7.086;2023-08-30T05:34:53;43.95;;;23.50;;
3321;SDS011;1673;51.388;7.086;2023-08-30T05:37:46;42.08;;;23.15;;
3321;SDS011;1673;51.388;7.086;2023-08-30T05:40:22;42.70;;;22.58;;
3321;SDS011;1673;51.388;7.086;2023-08-30T05:42:52;44.30;;;24.07;;
3321;SDS011;1673;51.388;7.086;2023-08-30T05:45:24;49.33;;;25.00;;
3321;SDS011;1673;51.388;7.086;2023-08-30T05:47:54;49.25;;;25.35;;
3321;SDS011;1673;51.388;7.086;2023-08-30T05:50:24;45.83;;;24.02;;
3321;SDS011;1673;51.388;7.086;2023-08-30T05:52:54;52.00;;;26.13;;
3321;SDS011;1673;51.388;7.086;2023-08-30T05:55:24;54.03;;;25.25;;
3321;SDS011;1673;51.388;7.086;2023-08-30T05:57:54;49.60;;;25.75;;
3321;SDS011;1673;51.388;7.086;2023-08-30T06:00:26;51.00;;;28.20;;
3321;SDS011;1673;51.388;7.086;2023-08-30T06:02:56;56.22;;;28.08;;
3321;SDS011;1673;51.388;7.086;2023-08-30T06:05:26;60.35;;;31.80;;
3321;SDS011;1673;51.388;7.086;2023-08-30T06:07:56;53.85;;;31.17;;
3321;SDS011;1673;51.388;7.086;2023-08-30T06:10:25;56.15;;;31.00;;
3321;SDS011;1673;51.388;7.086;2023-08-30T06:12:56;70.95;;;37.13;;
3321;SDS011;1673;51.388;7.086;2023-08-30T06:15:28;63.22;;;35.53;;
3321;SDS011;1673;51.388;7.086;2023-08-30T06:17:58;59.92;;;34.13;;
3321;SDS011;1673;51.388;7.086;2023-08-30T06:20:27;62.88;;;36.72;;
3321;SDS011;1673;51.388;7.086;2023-08-30T06:22:57;60.92;;;36.72;;
3321;SDS011;1673;51.388;7.086;2023-08-30T06:25:28;59.53;;;36.33;;
3321;SDS011;1673;51.388;7.086;2023-08-30T06:27:59;60.90;;;34.70;;
3321;SDS011;1673;51.388;7.086;2023-08-30T06:30:32;61.40;;;34.90;;
3321;SDS011;1673;51.388;7.086;2023-08-30T06:33:03;59.42;;;35.47;;
3321;SDS011;1673;51.388;7.086;2023-08-30T06:35:36;55.40;;;33.50;;
3321;SDS011;1673;51.388;7.086;2023-08-30T06:38:07;56.30;;;32.40;;
3321;SDS011;1673;51.388;7.086;2023-08-30T06:40:43;54.03;;;32.78;;
3321;SDS011;1673;51.388;7.086;2023-08-30T06:43:14;50.95;;;31.00;;
3321;SDS011;1673;51.388;7.086;2023-08-30T06:45:47;55.17;;;32.30;;
3321;SDS011;1673;51.388;7.086;2023-08-30T06:48:17;56.75;;;33.25;;
3321;SDS011;1673;51.388;7.086;2023-08-30T06:50:47;52.53;;;30.52;;
3321;SDS011;1673;51.388;7.086;2023-08-30T06:53:17;50.60;;;30.60;;
3321;SDS011;1673;51.388;7.086;2023-08-30T06:55:46;54.05;;;32.08;;
3321;SDS011;1673;51.388;7.086;2023-08-30T06:58:16;49.93;;;31.00;;
3321;SDS011;1673;51.388;7.086;2023-08-30T07:00:49;49.13;;;29.30;;
3321;SDS011;1673;51.388;7.086;2023-08-30T07:03:19;50.95;;;30.63;;
3321;SDS011;1673;51.388;7.086;2023-08-30T07:05:50;49.25;;;30.27;;
3321;SDS011;1673;51.388;7.086;2023-08-30T07:08:20;45.55;;;27.90;;
3321;SDS011;1673;51.388;7.086;2023-08-30T07:10:51;48.00;;;27.77;;
3321;SDS011;1673;51.388;7.086;2023-08-30T07:13:20;45.05;;;27.50;;
3321;SDS011;1673;51.388;7.086;2023-08-30T07:15:53;40.55;;;25.98;;
3321;SDS011;1673;51.388;7.086;2023-08-30T07:18:23;40.85;;;26.13;;
3321;SDS011;1673;51.388;7.086;2023-08-30T07:20:53;37.40;;;24.73;;
3321;SDS011;1673;51.388;7.086;2023-08-30T07:23:22;35.22;;;23.30;;
3321;SDS011;1673;51.388;7.086;2023-08-30T07:25:52;34.75;;;22.40;;
3321;SDS011;1673;51.388;7.086;2023-08-30T07:28:22;36.05;;;21.75;;
3321;SDS011;1673;51.388;7.086;2023-08-30T07:30:54;32.73;;;20.10;;
3321;SDS011;1673;51.388;7.086;2023-08-30T07:33:31;29.60;;;19.45;;
3321;SDS011;1673;51.388;7.086;2023-08-30T07:36:01;34.53;;;19.75;;
3321;SDS011;1673;51.388;7.086;2023-08-30T07:38:33;28.90;;;18.40;;
3321;SDS011;1673;51.388;7.086;2023-08-30T07:41:03;28.73;;;16.85;;
3321;SDS011;1673;51.388;7.086;2023-08-30T07:43:33;26.40;;;16.83;;
3321;SDS011;1673;51.388;7.086;2023-08-30T07:46:05;26.90;;;16.88;;
3321;SDS011;1673;51.388;7.086;2023-08-30T07:48:35;23.90;;;15.60;;
3321;SDS011;1673;51.388;7.086;2023-08-30T07:51:05;25.20;;;15.33;;
3321;SDS011;1673;51.388;7.086;2023-08-30T07:53:34;19.63;;;13.20;;
3321;SDS011;1673;51.388;7.086;2023-08-30T07:56:04;20.95;;;13.20;;
3321;SDS011;1673;51.388;7.086;2023-08-30T07:58:34;20.35;;;13.40;;
3321;SDS011;1673;51.388;7.086;2023-08-30T08:01:06;20.55;;;13.02;;
3321;SDS011;1673;51.388;7.086;2023-08-30T08:03:36;20.00;;;13.38;;
3321;SDS011;1673;51.388;7.086;2023-08-30T08:06:17;18.25;;;11.70;;
3321;SDS011;1673;51.388;7.086;2023-08-30T08:08:47;19.48;;;11.57;;
3321;SDS011;1673;51.388;7.086;2023-08-30T08:11:17;18.73;;;11.48;;
3321;SDS011;1673;51.388;7.086;2023-08-30T08:13:46;19.67;;;11.40;;
3321;SDS011;1673;51.388;7.086;2023-08-30T08:16:19;18.02;;;11.25;;
3321;SDS011;1673;51.388;7.086;2023-08-30T08:18:49;18.35;;;10.00;;
3321;SDS011;1673;51.388;7.086;2023-08-30T08:21:21;19.80;;;10.67;;
3321;SDS011;1673;51.388;7.086;2023-08-30T08:23:51;13.85;;;9.23;;
3321;SDS011;1673;51.388;7.086;2023-08-30T08:26:21;20.15;;;8.57;;
3321;SDS011;1673;51.388;7.086;2023-08-30T08:28:51;14.65;;;8.27;;
3321;SDS011;1673;51.388;7.086;2023-08-30T08:31:25;15.35;;;7.40;;
3321;SDS011;1673;51.388;7.086;2023-08-30T08:34:05;16.33;;;7.80;;
3321;SDS011;1673;51.388;7.086;2023-08-30T08:36:40;16.35;;;7.80;;
3321;SDS011;1673;51.388;7.086;2023-08-30T08:39:11;13.02;;;7.47;;
3321;SDS011;1673;51.388;7.086;2023-08-30T08:41:42;15.02;;;8.82;;
3321;SDS011;1673;51.388;7.086;2023-08-30T08:44:13;18.10;;;8.50;;
3321;SDS011;1673;51.388;7.086;2023-08-30T08:46:45;15.55;;;7.47;;
3321;SDS011;1673;51.388;7.086;2023-08-30T08:49:15;14.70;;;8.88;;
3321;SDS011;1673;51.388;7.086;2023-08-30T08:51:46;15.07;;;8.70;;
3321;SDS011;1673;51.388;7.086;2023-08-30T08:54:15;16.20;;;8.30;;
3321;SDS011;1673;51.388;7.086;2023-08-30T08:56:45;16.70;;;8.15;;
3321;SDS011;1673;51.388;7.086;2023-08-30T08:59:15;14.02;;;7.78;;
3321;SDS011;1673;51.388;7.086;2023-08-30T09:01:47;12.98;;;7.50;;
3321;SDS011;1673;51.388;7.086;2023-08-30T09:04:17;14.13;;;8.40;;
3321;SDS011;1673;51.388;7.086;2023-08-30T09:06:48;14.27;;;7.22;;
3321;SDS011;1673;51.388;7.086;2023-08-30T09:09:18;16.40;;;7.57;;
3321;SDS011;1673;51.388;7.086;2023-08-30T09:11:48;17.00;;;8.20;;
3321;SDS011;1673;51.388;7.086;2023-08-30T09:14:18;13.43;;;7.53;;
3321;SDS011;1673;51.388;7.086;2023-08-30T09:16:57;15.63;;;7.97;;
3321;SDS011;1673;51.388;7.086;2023-08-30T09:19:27;16.17;;;8.70;;
3321;SDS011;1673;51.388;7.086;2023-08-30T09:21:58;13.60;;;7.90;;
3321;SDS011;1673;51.388;7.086;2023-08-30T09:24:37;18.40;;;9.02;;
3321;SDS011;1673;51.388;7.086;2023-08-30T09:27:07;18.13;;;8.43;;
3321;SDS011;1673;51.388;7.086;2023-08-30T09:29:36;13.70;;;8.48;;
3321;SDS011;1673;51.388;7.086;2023-08-30T09:32:20;16.02;;;7.80;;
3321;SDS011;1673;51.388;7.086;2023-08-30T09:34:50;14.20;;;7.68;;
3321;SDS011;1673;51.388;7.086;2023-08-30T09:37:20;14.15;;;8.50;;
3321;SDS011;1673;51.388;7.086;2023-08-30T09:39:50;14.10;;;8.10;;
3321;SDS011;1673;51.388;7.086;2023-08-30T09:42:20;16.42;;;7.95;;
3321;SDS011;1673;51.388;7.086;2023-08-30T09:44:50;14.27;;;7.60;;
3321;SDS011;1673;51.388;7.086;2023-08-30T09:47:22;12.88;;;7.80;;
3321;SDS011;1673;51.388;7.086;2023-08-30T09:49:54;19.08;;;7.50;;
3321;SDS011;1673;51.388;7.086;2023-08-30T09:52:26;17.73;;;8.32;;
3321;SDS011;1673;51.388;7.086;2023-08-30T09:54:59;14.97;;;8.60;;
3321;SDS011;1673;51.388;7.086;2023-08-30T09:57:30;13.93;;;8.43;;
3321;SDS011;1673;51.388;7.086;2023-08-30T10:00:00;12.00;;;7.90;;
3321;SDS011;1673;51.388;7.086;2023-08-30T10:02:33;14.85;;;8.90;;
3321;SDS011;1673;51.388;7.086;2023-08-30T10:05:04;17.58;;;9.43;;
3321;SDS011;1673;51.388;7.086;2023-08-30T10:07:34;16.30;;;9.60;;
3321;SDS011;1673;51.388;7.086;2023-08-30T10:10:05;17.30;;;10.13;;
3321;SDS011;1673;51.388;7.086;2023-08-30T10:12:36;16.60;;;10.40;;
3321;SDS011;1673;51.388;7.086;2023-08-30T10:15:08;16.13;;;10.05;;
3321;SDS011;1673;51.388;7.086;2023-08-30T10:17:41;15.87;;;10.70;;
3321;SDS011;1673;51.388;7.086;2023-08-30T10:20:14;16.88;;;11.00;;
3321;SDS011;1673;51.388;7.086;2023-08-30T10:22:44;18.83;;;10.90;;
3321;SDS011;1673;51.388;7.086;2023-08-30T10:25:16;17.42;;;10.90;;
3321;SDS011;1673;51.388;7.086;2023-08-30T10:27:48;20.13;;;11.80;;
3321;SDS011;1673;51.388;7.086;2023-08-30T10:30:19;16.98;;;11.90;;
3321;SDS011;1673;51.388;7.086;2023-08-30T10:32:52;22.80;;;12.80;;
3321;SDS011;1673;51.388;7.086;2023-08-30T10:35:22;20.33;;;12.70;;
3321;SDS011;1673;51.388;7.086;2023-08-30T10:37:55;18.80;;;12.55;;
3321;SDS011;1673;51.388;7.086;2023-08-30T10:40:25;19.67;;;12.18;;
3321;SDS011;1673;51.388;7.086;2023-08-30T10:42:58;19.55;;;13.00;;
3321;SDS011;1673;51.388;7.086;2023-08-30T10:45:29;22.63;;;13.20;;
3321;SDS011;1673;51.388;7.086;2023-08-30T10:48:02;21.90;;;13.63;;
3321;SDS011;1673;51.388;7.086;2023-08-30T10:50:33;23.23;;;14.55;;
3321;SDS011;1673;51.388;7.086;2023-08-30T10:53:04;24.85;;;14.90;;
3321;SDS011;1673;51.388;7.086;2023-08-30T10:58:40;24.33;;;15.38;;
3321;SDS011;1673;51.388;7.086;2023-08-30T11:01:11;27.65;;;16.20;;
3321;SDS011;1673;51.388;7.086;2023-08-30T11:03:44;26.67;;;16.00;;
3321;SDS011;1673;51.388;7.086;2023-08-30T11:06:14;25.67;;;15.95;;
3321;SDS011;1673;51.388;7.086;2023-08-30T11:08:45;26.58;;;16.25;;
3321;SDS011;1673;51.388;7.086;2023-08-30T11:11:18;25.73;;;16.70;;
3321;SDS011;1673;51.388;7.086;2023-08-30T11:13:48;25.08;;;16.10;;
3321;SDS011;1673;51.388;7.086;2023-08-30T11:16:21;27.80;;;18.03;;
3321;SDS011;1673;51.388;7.086;2023-08-30T11:18:53;22.00;;;14.73;;
3321;SDS011;1673;51.388;7.086;2023-08-30T11:21:23;25.60;;;15.82;;
3321;SDS011;1673;51.388;7.086;2023-08-30T11:23:52;25.67;;;16.37;;
3321;SDS011;1673;51.388;7.086;2023-08-30T11:26:22;25.50;;;15.75;;
3321;SDS011;1673;51.388;7.086;2023-08-30T11:28:52;28.05;;;17.58;;
3321;SDS011;1673;51.388;7.086;2023-08-30T11:31:22;30.00;;;18.50;;
3321;SDS011;1673;51.388;7.086;2023-08-30T11:33:57;28.45;;;19.33;;
3321;SDS011;1673;51.388;7.086;2023-08-30T11:36:27;24.93;;;16.10;;
3321;SDS011;1673;51.388;7.086;2023-08-30T11:38:58;16.42;;;10.30;;
3321;SDS011;1673;51.388;7.086;2023-08-30T11:41:28;17.15;;;9.38;;
3321;SDS011;1673;51.388;7.086;2023-08-30T11:43:58;12.18;;;7.72;;
3321;SDS011;1673;51.388;7.086;2023-08-30T11:46:29;11.27;;;6.68;;
3321;SDS011;1673;51.388;7.086;2023-08-30T11:49:03;13.27;;;6.22;;
3321;SDS011;1673;51.388;7.086;2023-08-30T11:51:33;15.23;;;6.00;;
3321;SDS011;1673;51.388;7.086;2023-08-30T11:54:03;8.65;;;4.78;;
3321;SDS011;1673;51.388;7.086;2023-08-30T11:56:34;9.67;;;5.30;;
3321;SDS011;1673;51.388;7.086;2023-08-30T11:59:05;10.07;;;5.70;;
3321;SDS011;1673;51.388;7.086;2023-08-30T12:01:34;9.20;;;5.18;;
3321;SDS011;1673;51.388;7.086;2023-08-30T12:04:13;10.23;;;5.60;;
3321;SDS011;1673;51.388;7.086;2023-08-30T12:06:50;9.10;;;5.50;;
3321;SDS011;1673;51.388;7.086;2023-08-30T12:09:20;9.93;;;6.00;;
3321;SDS011;1673;51.388;7.086;2023-08-30T12:11:50;13.33;;;6.67;;
3321;SDS011;1673;51.388;7.086;2023-08-30T12:14:20;10.70;;;6.40;;
3321;SDS011;1673;51.388;7.086;2023-08-30T12:16:49;10.93;;;6.83;;
3321;SDS011;1673;51.388;7.086;2023-08-30T12:19:22;10.70;;;6.70;;
3321;SDS011;1673;51.388;7.086;2023-08-30T12:21:51;11.35;;;6.88;;
3321;SDS011;1673;51.388;7.086;2023-08-30T12:24:21;11.57;;;7.03;;
3321;SDS011;1673;51.388;7.086;2023-08-30T12:26:51;10.82;;;6.90;;
3321;SDS011;1673;51.388;7.086;2023-08-30T12:29:21;13.17;;;7.40;;
3321;SDS011;1673;51.388;7.086;2023-08-30T12:31:51;11.18;;;6.57;;
3321;SDS011;1673;51.388;7.086;2023-08-30T12:34:23;10.98;;;7.07;;
3321;SDS011;1673;51.388;7.086;2023-08-30T12:36:53;11.70;;;6.90;;
3321;SDS011;1673;51.388;7.086;2023-08-30T12:39:23;11.88;;;7.10;;
3321;SDS011;1673;51.388;7.086;2023-08-30T12:41:52;11.43;;;6.88;;
3321;SDS011;1673;51.388;7.086;2023-08-30T12:44:22;16.52;;;7.07;;
3321;SDS011;1673;51.388;7.086;2023-08-30T12:46:52;11.13;;;7.00;;
3321;SDS011;1673;51.388;7.086;2023-08-30T12:49:24;13.45;;;7.50;;
3321;SDS011;1673;51.388;7.086;2023-08-30T12:51:54;11.23;;;6.45;;
3321;SDS011;1673;51.388;7.086;2023-08-30T12:54:24;11.25;;;7.28;;
3321;SDS011;1673;51.388;7.086;2023-08-30T12:56:54;12.80;;;7.93;;
3321;SDS011;1673;51.388;7.086;2023-08-30T12:59:24;12.65;;;7.63;;
3321;SDS011;1673;51.388;7.086;2023-08-30T13:01:54;10.50;;;6.53;;
3321;SDS011;1673;51.388;7.086;2023-08-30T13:04:26;10.55;;;7.30;;
3321;SDS011;1673;51.388;7.086;2023-08-30T13:06:57;12.88;;;7.20;;
3321;SDS011;1673;51.388;7.086;2023-08-30T13:09:26;12.80;;;7.68;;
3321;SDS011;1673;51.388;7.086;2023-08-30T13:11:56;11.68;;;7.10;;
3321;SDS011;1673;51.388;7.086;2023-08-30T13:14:26;11.75;;;7.40;;
3321;SDS011;1673;51.388;7.086;2023-08-30T13:16:57;14.95;;;8.20;;
3321;SDS011;1673;51.388;7.086;2023-08-30T13:19:29;12.23;;;8.20;;
3321;SDS011;1673;51.388;7.086;2023-08-30T13:21:59;12.23;;;8.38;;
3321;SDS011;1673;51.388;7.086;2023-08-30T13:24:29;10.60;;;7.45;;
3321;SDS011;1673;51.388;7.086;2023-08-30T13:26:59;11.55;;;7.35;;
3321;SDS011;1673;51.388;7.086;2023-08-30T13:29:29;12.77;;;8.02;;
3321;SDS011;1673;51.388;7.086;2023-08-30T13:31:59;13.45;;;7.70;;
3321;SDS011;1673;51.388;7.086;2023-08-30T13:34:32;12.57;;;7.75;;
3321;SDS011;1673;51.388;7.086;2023-08-30T13:37:02;10.73;;;7.32;;
3321;SDS011;1673;51.388;7.086;2023-08-30T13:39:31;12.70;;;7.45;;
3321;SDS011;1673;51.388;7.086;2023-08-30T13:42:01;10.80;;;6.90;;
3321;SDS011;1673;51.388;7.086;2023-08-30T13:44:31;13.50;;;7.43;;
3321;SDS011;1673;51.388;7.086;2023-08-30T13:47:02;12.48;;;7.45;;
3321;SDS011;1673;51.388;7.086;2023-08-30T13:49:35;12.53;;;7.30;;
3321;SDS011;1673;51.388;7.086;2023-08-30T13:52:05;9.13;;;6.18;;
3321;SDS011;1673;51.388;7.086;2023-08-30T13:54:37;10.00;;;6.47;;
3321;SDS011;1673;51.388;7.086;2023-08-30T13:57:07;11.00;;;6.23;;
3321;SDS011;1673;51.388;7.086;2023-08-30T13:59:41;9.88;;;6.57;;
3321;SDS011;1673;51.388;7.086;2023-08-30T14:02:11;11.13;;;6.27;;
3321;SDS011;1673;51.388;7.086;2023-08-30T14:04:43;12.05;;;6.93;;
3321;SDS011;1673;51.388;7.086;2023-08-30T14:07:12;11.85;;;6.80;;
3321;SDS011;1673;51.388;7.086;2023-08-30T14:09:42;10.88;;;5.97;;
3321;SDS011;1673;51.388;7.086;2023-08-30T14:12:12;8.95;;;5.50;;
3321;SDS011;1673;51.388;7.086;2023-08-30T14:14:42;7.93;;;4.88;;
3321;SDS011;1673;51.388;7.086;2023-08-30T14:17:11;10.47;;;5.90;;
3321;SDS011;1673;51.388;7.086;2023-08-30T14:19:44;8.75;;;5.50;;
3321;SDS011;1673;51.388;7.086;2023-08-30T14:22:14;11.57;;;5.20;;
3321;SDS011;1673;51.388;7.086;2023-08-30T14:24:44;9.20;;;5.50;;
3321;SDS011;1673;51.388;7.086;2023-08-30T14:27:33;8.70;;;5.17;;
3321;SDS011;1673;51.388;7.086;2023-08-30T14:30:04;9.10;;;5.43;;
3321;SDS011;1673;51.388;7.086;2023-08-30T14:32:35;8.70;;;5.50;;
3321;SDS011;1673;51.388;7.086;2023-08-30T14:35:07;11.10;;;5.40;;
3321;SDS011;1673;51.388;7.086;2023-08-30T14:37:38;9.63;;;5.43;;
3321;SDS011;1673;51.388;7.086;2023-08-30T14:40:08;11.57;;;5.80;;
3321;SDS011;1673;51.388;7.086;2023-08-30T14:42:38;11.35;;;6.72;;
3321;SDS011;1673;51.388;7.086;2023-08-30T14:45:08;10.30;;;6.47;;
3321;SDS011;1673;51.388;7.086;2023-08-30T14:47:38;8.93;;;5.80;;
3321;SDS011;1673;51.388;7.086;2023-08-30T14:50:10;8.70;;;5.30;;
3321;SDS011;1673;51.388;7.086;2023-08-30T14:52:40;9.52;;;5.85;;
3321;SDS011;1673;51.388;7.086;2023-08-30T14:55:10;10.23;;;5.30;;
3321;SDS011;1673;51.388;7.086;2023-08-30T14:57:39;8.98;;;5.20;;
3321;SDS011;1673;51.388;7.086;2023-08-30T15:00:10;9.80;;;5.80;;
3321;SDS011;1673;51.388;7.086;2023-08-30T15:02:40;9.10;;;5.50;;
3321;SDS011;1673;51.388;7.086;2023-08-30T15:05:13;10.25;;;6.30;;
3321;SDS011;1673;51.388;7.086;2023-08-30T15:07:42;12.23;;;6.20;;
3321;SDS011;1673;51.388;7.086;2023-08-30T15:10:12;9.80;;;6.03;;
3321;SDS011;1673;51.388;7.086;2023-08-30T15:12:42;13.43;;;6.40;;
3321;SDS011;1673;51.388;7.086;2023-08-30T15:15:13;11.55;;;6.30;;
3321;SDS011;1673;51.388;7.086;2023-08-30T15:17:42;11.40;;;6.10;;
3321;SDS011;1673;51.388;7.086;2023-08-30T15:20:15;11.30;;;6.90;;
3321;SDS011;1673;51.388;7.086;2023-08-30T15:22:44;12.43;;;6.40;;
3321;SDS011;1673;51.388;7.086;2023-08-30T15:25:14;11.05;;;6.80;;